Time;durP1;ratioP1;P1;durP2;ratioP2;P2;SDS_P1;SDS_P2;PMS_P1;PMS_P2;Temp;Humidity;BMP_temperature;BMP_pressure;BME280_temperature;BME280_humidity;BME280_pressure;Samples;Min_cycle;Max_cycle;Signal;HPM_P1;HPM_P2
2021/07/30 00:02:13;;;;;;;20.48;19.13;;;17.30;99.90;;;;;;5094101;28;20192;-74
2021/07/30 00:04:40;;;;;;;16.92;4.05;;;17.30;99.90;;;;;;5087451;28;20201;-74
2021/07/30 00:07:09;;;;;;;5.63;3.60;;;17.30;99.90;;;;;;5087844;28;20224;-73
2021/07/30 00:09:38;;;;;;;4.90;3.35;;;17.30;99.90;;;;;;5094938;28;20185;-73
2021/07/30 00:12:06;;;;;;;6.70;4.00;;;17.30;99.90;;;;;;5089288;28;20212;-74
2021/07/30 00:14:33;;;;;;;7.32;4.45;;;17.30;99.90;;;;;;5087855;28;20286;-73
2021/07/30 00:17:00;;;;;;;9.10;4.43;;;17.30;99.90;;;;;;5087829;28;20201;-74
2021/07/30 00:19:27;;;;;;;6.85;4.38;;;17.30;99.90;;;;;;5091597;28;20235;-73
2021/07/30 00:21:54;;;;;;;9.52;4.13;;;17.30;99.90;;;;;;5097364;28;20201;-74
2021/07/30 00:24:21;;;;;;;7.72;3.10;;;17.30;99.90;;;;;;5098879;28;20181;-74
2021/07/30 00:26:50;;;;;;;7.00;3.72;;;17.20;99.90;;;;;;5095936;28;20205;-74
2021/07/30 00:29:17;;;;;;;6.18;3.72;;;17.20;99.90;;;;;;5088618;28;20197;-73
2021/07/30 00:31:44;;;;;;;6.05;3.80;;;17.20;99.90;;;;;;5092316;28;20290;-74
2021/07/30 00:34:11;;;;;;;12.60;4.30;;;17.20;99.90;;;;;;5086339;28;20228;-73
2021/07/30 00:36:38;;;;;;;4.57;3.63;;;17.20;99.90;;;;;;5089865;28;20205;-72
2021/07/30 00:39:05;;;;;;;8.27;3.70;;;17.30;99.90;;;;;;5087360;28;20250;-73
2021/07/30 00:41:35;;;;;;;5.40;3.60;;;17.30;99.90;;;;;;5087687;28;20201;-73
2021/07/30 00:44:04;;;;;;;5.53;3.50;;;17.30;99.90;;;;;;5092790;28;20205;-73
2021/07/30 00:46:31;;;;;;;8.68;4.00;;;17.30;99.90;;;;;;5089590;28;20200;-73
2021/07/30 00:48:58;;;;;;;10.40;3.60;;;17.30;99.90;;;;;;5092578;28;20250;-73
2021/07/30 00:51:27;;;;;;;7.50;4.55;;;17.30;99.90;;;;;;5091386;28;20288;-73
2021/07/30 00:53:55;;;;;;;9.85;5.32;;;17.30;99.90;;;;;;5086913;28;20283;-73
2021/07/30 00:56:22;;;;;;;6.63;3.97;;;17.30;99.90;;;;;;5093338;28;20208;-72
2021/07/30 00:58:50;;;;;;;7.10;3.85;;;17.30;99.90;;;;;;5087023;28;20212;-73
2021/07/30 01:01:18;;;;;;;7.75;4.32;;;17.40;99.90;;;;;;5087076;28;20197;-73
2021/07/30 01:03:45;;;;;;;7.95;4.35;;;17.40;99.90;;;;;;5085549;28;20213;-73
2021/07/30 01:06:13;;;;;;;5.75;3.75;;;17.40;99.90;;;;;;5085437;28;20205;-73
2021/07/30 01:08:40;;;;;;;4.55;3.90;;;17.50;99.90;;;;;;5086936;28;20286;-73
2021/07/30 01:11:07;;;;;;;6.63;4.32;;;17.50;99.90;;;;;;5087311;28;20201;-74
2021/07/30 01:13:34;;;;;;;5.40;3.70;;;17.50;99.90;;;;;;5086042;28;20229;-74
2021/07/30 01:16:01;;;;;;;6.75;4.32;;;17.60;99.90;;;;;;5092672;28;20236;-74
2021/07/30 01:18:29;;;;;;;11.20;4.32;;;17.60;99.90;;;;;;5094700;28;20204;-73
2021/07/30 01:21:07;;;;;;;8.63;7.78;;;17.70;99.90;;;;;;5092921;28;20231;-74
2021/07/30 01:23:35;;;;;;;10.20;3.90;;;17.70;99.90;;;;;;5086613;28;20264;-74
2021/07/30 01:26:02;;;;;;;10.75;4.63;;;17.70;99.90;;;;;;5086022;28;20201;-73
2021/07/30 01:28:31;;;;;;;47.13;44.30;;;17.70;99.90;;;;;;5088166;28;20247;-73
2021/07/30 01:30:58;;;;;;;4.78;3.80;;;17.80;99.90;;;;;;5094851;28;20265;-73
2021/07/30 01:33:25;;;;;;;4.05;3.65;;;17.80;99.90;;;;;;5091834;28;20201;-73
2021/07/30 01:35:51;;;;;;;10.30;5.00;;;17.80;99.90;;;;;;5085952;28;20197;-74
2021/07/30 01:38:18;;;;;;;6.18;3.75;;;17.80;99.90;;;;;;5085845;28;20201;-74
2021/07/30 01:40:47;;;;;;;7.97;3.90;;;17.80;99.90;;;;;;5089659;28;20230;-73
2021/07/30 01:43:14;;;;;;;7.60;3.92;;;17.80;99.90;;;;;;5086652;28;20235;-74
2021/07/30 01:45:41;;;;;;;57.28;53.72;;;17.80;99.90;;;;;;5086297;28;20209;-74
2021/07/30 01:48:07;;;;;;;53.03;50.17;;;17.90;99.90;;;;;;5086599;28;20228;-74
2021/07/30 01:50:34;;;;;;;71.60;67.82;;;17.90;99.90;;;;;;5086613;28;20538;-74
2021/07/30 01:53:02;;;;;;;64.72;61.20;;;17.90;99.90;;;;;;5086248;28;20212;-73
2021/07/30 01:55:28;;;;;;;58.13;54.80;;;17.90;99.90;;;;;;5086328;28;20224;-73
2021/07/30 01:57:57;;;;;;;38.45;35.75;;;17.90;99.90;;;;;;5085215;28;20201;-73
2021/07/30 02:00:24;;;;;;;45.30;42.97;;;18.00;99.90;;;;;;5086295;28;20201;-73
2021/07/30 02:02:51;;;;;;;38.03;35.83;;;18.00;99.90;;;;;;5086129;28;20205;-73
2021/07/30 02:05:18;;;;;;;29.90;28.27;;;17.90;99.90;;;;;;5086141;28;20716;-73
2021/07/30 02:07:44;;;;;;;81.90;77.80;;;17.90;99.90;;;;;;5086612;28;20286;-75
2021/07/30 02:10:12;;;;;;;75.60;71.45;;;17.90;99.90;;;;;;5085856;28;20197;-75
2021/07/30 02:15:23;;;;;;;6.00;4.68;;;17.90;99.90;;;;;;5084573;28;20201;-75
2021/07/30 02:17:50;;;;;;;7.90;4.40;;;17.80;99.90;;;;;;5088331;28;20254;-75
2021/07/30 02:20:17;;;;;;;7.35;4.03;;;17.90;99.90;;;;;;5095569;28;20266;-75
2021/07/30 02:22:44;;;;;;;8.27;4.65;;;17.90;99.90;;;;;;5092085;28;20213;-75
2021/07/30 02:25:12;;;;;;;8.43;4.50;;;17.90;99.90;;;;;;5085820;28;20193;-75
2021/07/30 02:27:38;;;;;;;12.57;4.80;;;17.90;99.90;;;;;;5085419;28;20225;-75
2021/07/30 02:30:07;;;;;;;5.85;4.30;;;17.90;99.90;;;;;;5092135;28;20225;-75
2021/07/30 02:32:35;;;;;;;10.50;4.50;;;17.90;99.90;;;;;;5086147;28;20208;-75
2021/07/30 02:35:02;;;;;;;11.52;4.63;;;18.00;99.90;;;;;;5084405;28;20255;-75
2021/07/30 02:37:29;;;;;;;11.02;5.05;;;18.00;99.90;;;;;;5088696;28;20228;-75
2021/07/30 02:39:56;;;;;;;8.68;5.47;;;17.90;99.90;;;;;;5086197;28;20235;-74
2021/07/30 02:42:22;;;;;;;8.35;4.70;;;17.90;99.90;;;;;;5086032;28;20196;-74
2021/07/30 02:44:50;;;;;;;13.32;5.28;;;17.90;99.90;;;;;;5085237;28;20573;-75
2021/07/30 02:47:17;;;;;;;10.35;4.78;;;17.80;99.90;;;;;;5092951;28;20268;-75
2021/07/30 02:49:45;;;;;;;4.97;4.32;;;17.80;99.90;;;;;;5089310;28;20656;-75
2021/07/30 02:52:12;;;;;;;11.23;4.53;;;17.80;99.90;;;;;;5097021;28;20272;-75
2021/07/30 02:54:39;;;;;;;7.78;4.57;;;17.80;99.90;;;;;;5090209;28;20201;-74
2021/07/30 02:57:06;;;;;;;11.93;5.28;;;17.80;99.90;;;;;;5088580;28;20205;-74
2021/07/30 02:59:34;;;;;;;6.80;4.32;;;17.80;99.90;;;;;;5088982;28;20201;-74
2021/07/30 03:02:01;;;;;;;11.82;4.15;;;17.80;99.90;;;;;;5087791;28;20232;-74
2021/07/30 03:04:28;;;;;;;10.75;4.07;;;17.80;99.90;;;;;;5088968;28;20255;-74
2021/07/30 03:06:56;;;;;;;13.05;4.65;;;17.70;99.90;;;;;;5088831;28;20205;-74
2021/07/30 03:09:23;;;;;;;9.05;4.03;;;17.70;99.90;;;;;;5093892;28;20258;-75
2021/07/30 03:11:50;;;;;;;5.60;4.47;;;17.70;99.90;;;;;;5089220;28;20205;-75
2021/07/30 03:14:17;;;;;;;6.45;4.10;;;17.60;99.90;;;;;;5088609;28;20271;-74
2021/07/30 03:16:44;;;;;;;6.10;3.95;;;17.60;99.90;;;;;;5089258;28;20235;-74
2021/07/30 03:19:10;;;;;;;6.68;4.07;;;17.50;99.90;;;;;;5092030;28;20223;-74
2021/07/30 03:21:39;;;;;;;6.78;4.80;;;17.50;99.90;;;;;;5090649;28;20805;-74
2021/07/30 03:24:07;;;;;;;6.78;3.92;;;17.50;99.90;;;;;;5100125;28;20258;-74
2021/07/30 03:26:34;;;;;;;14.98;4.45;;;17.50;99.90;;;;;;5088998;28;20209;-74
2021/07/30 03:29:01;;;;;;;4.40;4.00;;;17.40;99.90;;;;;;5091108;28;20213;-74
2021/07/30 03:31:30;;;;;;;10.65;4.40;;;17.40;99.90;;;;;;5094876;28;20202;-74
2021/07/30 03:33:56;;;;;;;6.95;4.18;;;17.40;99.90;;;;;;5091306;28;20201;-74
2021/07/30 03:36:23;;;;;;;8.07;4.18;;;17.40;99.90;;;;;;5088215;28;20194;-74
2021/07/30 03:38:50;;;;;;;8.82;3.90;;;17.40;99.90;;;;;;5088395;28;20209;-74
2021/07/30 03:41:19;;;;;;;8.82;4.40;;;17.40;99.90;;;;;;5090988;28;20201;-74
2021/07/30 03:43:46;;;;;;;14.10;4.10;;;17.30;99.90;;;;;;5095680;28;20260;-75
2021/07/30 03:46:13;;;;;;;5.30;3.85;;;17.30;99.90;;;;;;5092750;28;20628;-74
2021/07/30 03:48:39;;;;;;;7.00;4.07;;;17.20;99.90;;;;;;5092777;28;20224;-74
2021/07/30 03:51:06;;;;;;;5.95;4.38;;;17.20;99.90;;;;;;5092711;28;20201;-74
2021/07/30 03:53:33;;;;;;;5.63;3.70;;;17.20;99.90;;;;;;5088836;28;20200;-74
2021/07/30 03:56:00;;;;;;;6.55;4.00;;;17.20;99.90;;;;;;5087889;28;20450;-74
2021/07/30 03:58:28;;;;;;;8.10;3.80;;;17.20;99.90;;;;;;5087387;28;20201;-74
2021/07/30 04:00:55;;;;;;;9.52;4.13;;;17.20;99.90;;;;;;5095060;28;20205;-74
2021/07/30 04:03:22;;;;;;;12.95;4.40;;;17.20;99.90;;;;;;5087887;28;20284;-74
2021/07/30 04:05:49;;;;;;;5.80;3.08;;;17.20;99.90;;;;;;5086778;28;20273;-75
2021/07/30 04:08:16;;;;;;;6.85;4.28;;;17.20;99.90;;;;;;5087929;28;20228;-75
2021/07/30 04:10:43;;;;;;;9.35;4.10;;;17.20;99.90;;;;;;5088114;28;20230;-75
2021/07/30 04:13:10;;;;;;;9.70;4.30;;;17.20;99.90;;;;;;5086813;28;20196;-75
2021/07/30 04:15:38;;;;;;;11.13;4.05;;;17.10;99.90;;;;;;5087792;28;20855;-75
2021/07/30 04:18:05;;;;;;;6.47;4.93;;;17.10;99.90;;;;;;5087945;28;20201;-75
2021/07/30 04:20:35;;;;;;;11.43;4.65;;;17.10;99.90;;;;;;5100291;28;20200;-75
2021/07/30 04:23:01;;;;;;;14.20;4.60;;;17.10;99.90;;;;;;5088966;28;20200;-75
2021/07/30 04:25:28;;;;;;;6.53;4.68;;;17.00;99.90;;;;;;5088762;28;20204;-75
2021/07/30 04:27:55;;;;;;;5.30;3.95;;;17.00;99.90;;;;;;5090676;28;20205;-73
2021/07/30 04:30:25;;;;;;;14.32;4.13;;;17.00;99.90;;;;;;5093196;28;20201;-74
2021/07/30 04:32:53;;;;;;;6.45;4.25;;;17.00;99.90;;;;;;5087642;28;20211;-74
2021/07/30 04:35:20;;;;;;;7.07;3.70;;;17.10;99.90;;;;;;5086176;28;20208;-73
2021/07/30 04:37:47;;;;;;;5.22;4.03;;;17.10;99.90;;;;;;5087726;28;20205;-74
2021/07/30 04:40:14;;;;;;;10.80;3.97;;;17.10;99.90;;;;;;5095914;28;20607;-74
2021/07/30 04:42:41;;;;;;;5.95;3.38;;;17.20;99.90;;;;;;5086628;28;20200;-74
2021/07/30 04:45:09;;;;;;;9.45;3.97;;;17.20;99.90;;;;;;5087230;28;20229;-74
2021/07/30 04:47:36;;;;;;;7.70;3.95;;;17.30;99.90;;;;;;5087869;28;20202;-74
2021/07/30 04:50:05;;;;;;;18.23;4.55;;;17.30;99.90;;;;;;5086993;28;20255;-74
2021/07/30 04:52:32;;;;;;;7.47;3.83;;;17.20;99.90;;;;;;5087651;28;20197;-74
2021/07/30 04:54:59;;;;;;;10.10;4.18;;;17.20;99.90;;;;;;5092263;28;20618;-74
2021/07/30 04:57:26;;;;;;;8.73;3.25;;;17.20;99.90;;;;;;5092847;28;20201;-74
2021/07/30 04:59:52;;;;;;;6.43;3.53;;;17.20;99.90;;;;;;5087668;28;20197;-74
2021/07/30 05:02:19;;;;;;;8.25;3.53;;;17.20;99.90;;;;;;5087497;28;20201;-74
2021/07/30 05:04:46;;;;;;;6.35;4.03;;;17.10;99.90;;;;;;5090119;28;20204;-74
2021/07/30 05:07:15;;;;;;;9.70;4.00;;;17.10;99.90;;;;;;5088746;28;20236;-74
2021/07/30 05:09:42;;;;;;;4.95;3.72;;;17.10;99.90;;;;;;5084740;28;20233;-74
2021/07/30 05:12:09;;;;;;;7.65;4.28;;;17.10;99.90;;;;;;5087228;28;20209;-74
2021/07/30 05:14:36;;;;;;;7.35;4.30;;;17.20;99.90;;;;;;5099968;28;20229;-74
2021/07/30 05:17:03;;;;;;;13.25;4.38;;;17.20;99.90;;;;;;5091491;28;20204;-74
2021/07/30 05:19:32;;;;;;;8.73;3.70;;;17.10;99.90;;;;;;5092122;28;20653;-74
2021/07/30 05:21:59;;;;;;;7.43;3.50;;;17.20;99.90;;;;;;5086348;28;20209;-74
2021/07/30 05:24:27;;;;;;;6.10;4.32;;;17.20;99.90;;;;;;5091079;28;20223;-74
2021/07/30 05:26:54;;;;;;;11.80;3.78;;;17.20;99.90;;;;;;5086831;28;20204;-74
2021/07/30 05:29:21;;;;;;;7.88;3.53;;;17.20;99.90;;;;;;5092657;28;20261;-74
2021/07/30 05:31:48;;;;;;;12.15;4.95;;;17.20;99.90;;;;;;5085691;28;20258;-74
2021/07/30 05:34:15;;;;;;;5.57;3.13;;;17.10;99.90;;;;;;5090992;28;20197;-74
2021/07/30 05:36:43;;;;;;;10.30;3.63;;;17.10;99.90;;;;;;5087687;28;20205;-74
2021/07/30 05:39:10;;;;;;;8.32;3.97;;;17.20;99.90;;;;;;5086536;28;20780;-74
2021/07/30 05:41:38;;;;;;;7.97;3.65;;;17.30;99.90;;;;;;5086632;28;20201;-74
2021/07/30 05:44:05;;;;;;;5.78;4.25;;;17.30;99.90;;;;;;5086513;28;20270;-74
2021/07/30 05:46:32;;;;;;;12.15;4.15;;;17.30;99.90;;;;;;5086076;28;20201;-74
2021/07/30 05:49:00;;;;;;;4.72;3.50;;;17.30;99.90;;;;;;5092400;28;20229;-74
2021/07/30 05:51:27;;;;;;;11.05;3.95;;;17.20;99.90;;;;;;5086501;28;20220;-73
2021/07/30 05:53:55;;;;;;;8.35;4.05;;;17.30;99.90;;;;;;5094916;28;20253;-73
2021/07/30 05:56:22;;;;;;;8.57;4.57;;;17.30;99.90;;;;;;5085730;28;20205;-73
2021/07/30 05:58:50;;;;;;;10.90;4.60;;;17.40;99.90;;;;;;5091868;28;20227;-74
2021/07/30 06:01:17;;;;;;;9.55;4.35;;;17.40;99.90;;;;;;5085957;28;20201;-74
2021/07/30 06:03:44;;;;;;;8.95;4.35;;;17.40;99.90;;;;;;5085864;28;20213;-76
2021/07/30 06:06:11;;;;;;;6.55;4.10;;;17.40;99.90;;;;;;5092355;28;20222;-76
2021/07/30 06:08:37;;;;;;;4.38;3.70;;;17.30;99.90;;;;;;5091248;28;20242;-76
2021/07/30 06:11:05;;;;;;;7.13;4.07;;;17.30;99.90;;;;;;5094422;28;20242;-76
2021/07/30 06:13:32;;;;;;;17.55;4.40;;;17.40;99.90;;;;;;5088090;28;20291;-74
2021/07/30 06:16:00;;;;;;;7.28;3.35;;;17.40;99.90;;;;;;5091131;28;20647;-74
2021/07/30 06:18:27;;;;;;;6.15;4.25;;;17.50;99.90;;;;;;5085563;28;20258;-74
2021/07/30 06:20:54;;;;;;;9.07;4.00;;;17.60;99.90;;;;;;5090260;28;20462;-74
2021/07/30 06:23:21;;;;;;;6.65;4.15;;;17.70;99.90;;;;;;5094626;28;20220;-75
2021/07/30 06:25:48;;;;;;;8.43;4.18;;;17.80;99.90;;;;;;5089771;28;20222;-74
2021/07/30 06:28:15;;;;;;;8.07;3.92;;;17.90;99.90;;;;;;5093190;28;20197;-74
2021/07/30 06:30:41;;;;;;;13.13;4.43;;;18.00;99.90;;;;;;5089385;28;20281;-74
2021/07/30 06:33:13;;;;;;;6.00;3.70;;;18.20;99.90;;;;;;5088149;28;20201;-74
2021/07/30 06:35:39;;;;;;;7.97;3.45;;;18.30;99.90;;;;;;5089449;28;20213;-74
2021/07/30 06:38:08;;;;;;;7.15;3.85;;;18.30;99.90;;;;;;5089359;28;20200;-74
2021/07/30 06:40:35;;;;;;;9.20;3.92;;;18.40;99.90;;;;;;5089145;28;20227;-75
2021/07/30 06:43:02;;;;;;;6.80;3.50;;;18.60;99.90;;;;;;5090007;28;20208;-75
2021/07/30 06:45:29;;;;;;;8.07;4.05;;;18.70;99.90;;;;;;5091842;28;20245;-75
2021/07/30 06:47:56;;;;;;;11.50;4.35;;;18.80;99.90;;;;;;5091190;28;20200;-74
2021/07/30 06:50:24;;;;;;;9.48;3.70;;;18.90;99.90;;;;;;5093312;28;20299;-74
2021/07/30 06:52:51;;;;;;;6.43;4.30;;;19.00;99.90;;;;;;5093330;28;20584;-74
2021/07/30 06:55:20;;;;;;;6.53;3.70;;;19.10;99.90;;;;;;5094162;28;20185;-74
2021/07/30 06:57:47;;;;;;;9.30;3.80;;;19.20;99.90;;;;;;5091233;28;20205;-74
2021/07/30 07:00:14;;;;;;;7.18;3.65;;;19.30;99.90;;;;;;5092024;28;20654;-75
2021/07/30 07:02:42;;;;;;;11.68;4.07;;;19.50;99.90;;;;;;5093703;28;20212;-74
2021/07/30 07:05:10;;;;;;;7.00;4.00;;;19.60;99.90;;;;;;5087684;28;20231;-75
2021/07/30 07:07:38;;;;;;;5.57;3.65;;;19.60;99.90;;;;;;5087261;28;20254;-74
2021/07/30 07:10:26;;;;;;;11.60;3.40;;;19.90;99.90;;;;;;5093954;28;20216;-75
2021/07/30 07:12:54;;;;;;;7.95;3.95;;;20.10;99.90;;;;;;5096872;28;20208;-75
2021/07/30 07:15:21;;;;;;;7.88;3.72;;;20.50;99.90;;;;;;5094808;28;20197;-74
2021/07/30 07:17:48;;;;;;;10.35;3.20;;;20.80;99.90;;;;;;5092366;28;20201;-74
2021/07/30 07:20:15;;;;;;;8.30;3.50;;;21.10;99.90;;;;;;5093640;28;20624;-75
2021/07/30 07:22:43;;;;;;;5.25;3.20;;;21.30;99.90;;;;;;5088456;28;20288;-74
2021/07/30 07:25:11;;;;;;;3.83;2.88;;;21.60;99.90;;;;;;5088657;28;20201;-75
2021/07/30 07:27:38;;;;;;;8.30;3.33;;;21.80;99.90;;;;;;5087037;28;20205;-74
2021/07/30 07:30:06;;;;;;;5.60;3.22;;;21.90;99.90;;;;;;5096011;28;20220;-74
2021/07/30 07:32:33;;;;;;;5.35;3.55;;;22.30;99.90;;;;;;5088263;28;20197;-75
2021/07/30 07:35:00;;;;;;;12.25;3.00;;;22.70;99.90;;;;;;5095165;28;20261;-75
2021/07/30 07:37:28;;;;;;;5.85;2.30;;;23.00;99.90;;;;;;5087581;28;20201;-75
2021/07/30 07:39:56;;;;;;;8.95;3.00;;;23.20;99.90;;;;;;5089322;28;20235;-75
2021/07/30 07:42:23;;;;;;;5.13;2.75;;;23.20;99.90;;;;;;5091083;28;20219;-75
2021/07/30 07:44:51;;;;;;;5.25;2.85;;;23.30;99.90;;;;;;5091866;28;20608;-75
2021/07/30 07:47:18;;;;;;;23.20;3.25;;;23.30;99.90;;;;;;5089720;28;20284;-76
2021/07/30 07:49:45;;;;;;;7.40;4.22;;;23.40;99.90;;;;;;5091130;28;20225;-75
2021/07/30 07:52:12;;;;;;;5.72;3.13;;;23.50;99.90;;;;;;5087460;28;20257;-75
2021/07/30 07:54:39;;;;;;;7.22;3.80;;;23.60;99.90;;;;;;5088556;28;20227;-75
2021/07/30 07:57:07;;;;;;;4.75;2.78;;;24.00;99.90;;;;;;5091266;28;20209;-75
2021/07/30 07:59:34;;;;;;;8.90;2.60;;;24.30;99.90;;;;;;5091658;28;20197;-75
2021/07/30 08:02:02;;;;;;;6.78;2.97;;;24.50;99.90;;;;;;5105801;28;20230;-75
2021/07/30 08:04:31;;;;;;;4.47;2.42;;;24.60;99.90;;;;;;5101007;28;20196;-75
2021/07/30 08:06:58;;;;;;;6.28;2.83;;;24.60;99.90;;;;;;5098435;28;20208;-75
2021/07/30 08:09:25;;;;;;;5.47;1.98;;;24.60;99.90;;;;;;5092239;28;20224;-75
2021/07/30 08:11:51;;;;;;;6.90;2.63;;;24.60;99.90;;;;;;5087682;28;20204;-76
2021/07/30 08:14:20;;;;;;;6.63;2.60;;;24.50;99.90;;;;;;5086656;28;20239;-76
2021/07/30 08:16:47;;;;;;;7.15;2.80;;;24.50;99.90;;;;;;5092253;28;20201;-75
2021/07/30 08:19:14;;;;;;;4.05;2.30;;;24.60;99.90;;;;;;5090714;28;20197;-76
2021/07/30 08:21:41;;;;;;;3.83;3.25;;;24.60;99.90;;;;;;5090982;28;20212;-76
2021/07/30 08:24:08;;;;;;;6.32;3.28;;;24.70;99.90;;;;;;5087515;28;20205;-76
2021/07/30 08:26:34;;;;;;;5.72;3.00;;;24.60;99.90;;;;;;5086921;28;20197;-76
2021/07/30 08:29:01;;;;;;;3.70;2.50;;;24.70;99.90;;;;;;5086820;28;20205;-76
2021/07/30 08:31:30;;;;;;;7.30;3.33;;;24.90;99.90;;;;;;5088604;28;20201;-75
2021/07/30 08:33:57;;;;;;;7.32;2.50;;;24.90;99.90;;;;;;5087612;28;20228;-76
2021/07/30 08:36:23;;;;;;;6.85;2.95;;;25.30;99.90;;;;;;5086849;28;20251;-76
2021/07/30 08:38:50;;;;;;;3.50;2.40;;;25.70;99.90;;;;;;5092254;28;20231;-76
2021/07/30 08:41:21;;;;;;;3.28;2.63;;;26.10;99.90;;;;;;5088044;28;20228;-76
2021/07/30 08:43:51;;;;;;;6.28;2.50;;;26.20;99.90;;;;;;5087220;28;20232;-75
2021/07/30 08:46:19;;;;;;;3.40;2.05;;;26.30;99.90;;;;;;5088188;28;20284;-76
2021/07/30 08:48:47;;;;;;;5.05;2.00;;;26.60;99.90;;;;;;5086693;28;20234;-76
2021/07/30 08:51:18;;;;;;;4.85;2.13;;;26.80;99.90;;;;;;5087475;28;20209;-76
2021/07/30 08:53:46;;;;;;;6.88;2.40;;;27.20;99.90;;;;;;5094956;28;20205;-75
2021/07/30 08:56:13;;;;;;;7.53;2.25;;;27.10;99.90;;;;;;5092706;28;20201;-76
2021/07/30 08:58:40;;;;;;;7.97;2.00;;;27.30;99.90;;;;;;5092939;28;20249;-76
2021/07/30 09:01:07;;;;;;;4.40;2.15;;;27.50;99.90;;;;;;5092315;28;20227;-76
2021/07/30 09:03:38;;;;;;;8.27;2.65;;;27.70;99.90;;;;;;5087007;28;20197;-76
2021/07/30 09:06:18;;;;;;;4.95;2.25;;;27.70;99.90;;;;;;5085326;28;20205;-75
2021/07/30 09:08:45;;;;;;;2.72;2.53;;;27.60;99.90;;;;;;5085093;28;20242;-75
2021/07/30 09:11:28;;;;;;;5.88;2.22;;;27.50;99.90;;;;;;5085378;28;20225;-75
2021/07/30 09:13:56;;;;;;;6.03;1.98;;;27.40;99.90;;;;;;5089129;28;20288;-76
2021/07/30 09:16:23;;;;;;;2.42;1.55;;;27.20;99.90;;;;;;5086655;28;20294;-76
2021/07/30 09:18:52;;;;;;;8.57;2.40;;;27.30;99.90;;;;;;5086102;28;20819;-76
2021/07/30 09:21:26;;;;;;;7.60;1.70;;;27.20;99.90;;;;;;5092590;28;20642;-76
2021/07/30 09:23:56;;;;;;;2.58;2.00;;;27.20;99.90;;;;;;5092767;28;20675;-76
2021/07/30 09:26:38;;;;;;;5.47;2.03;;;27.30;99.90;;;;;;5090221;28;20204;-75
2021/07/30 09:29:07;;;;;;;5.28;2.63;;;27.40;99.90;;;;;;5088299;28;20234;-74
2021/07/30 09:31:46;;;;;;;4.18;2.03;;;27.10;99.90;;;;;;5093803;28;20216;-75
2021/07/30 09:34:18;;;;;;;4.60;2.00;;;26.80;99.90;;;;;;5090792;28;20313;-75
2021/07/30 09:36:49;;;;;;;3.15;2.05;;;26.60;99.90;;;;;;5088878;28;20201;-74
2021/07/30 09:39:17;;;;;;;5.15;2.00;;;26.40;99.90;;;;;;5086205;28;20223;-75
2021/07/30 09:41:55;;;;;;;4.45;2.03;;;26.40;99.90;;;;;;5085759;28;20209;-75
2021/07/30 09:44:22;;;;;;;2.20;1.70;;;26.50;99.90;;;;;;5084412;28;20205;-75
2021/07/30 09:47:11;;;;;;;4.85;2.28;;;26.80;99.90;;;;;;5092939;28;20205;-75
2021/07/30 09:49:50;;;;;;;5.38;2.55;;;26.90;99.90;;;;;;5090248;28;20197;-74
2021/07/30 09:52:20;;;;;;;5.38;2.05;;;27.20;99.90;;;;;;5094554;28;20576;-74
2021/07/30 09:54:49;;;;;;;4.82;2.15;;;27.50;99.90;;;;;;5084355;28;20231;-74
2021/07/30 09:57:19;;;;;;;4.28;2.10;;;27.50;99.90;;;;;;5089663;28;20197;-75
2021/07/30 09:59:46;;;;;;;4.30;1.70;;;27.70;99.90;;;;;;5085689;28;20232;-74
2021/07/30 10:08:29;;;;;;;4.55;2.15;;;27.70;99.90;;;;;;5087654;28;20212;-74
2021/07/30 10:10:56;;;;;;;7.40;2.30;;;27.90;99.90;;;;;;5086836;28;20257;-74
2021/07/30 10:13:35;;;;;;;8.70;2.20;;;28.00;99.90;;;;;;5089288;28;20197;-74
2021/07/30 10:16:03;;;;;;;4.65;2.25;;;28.20;99.90;;;;;;5082925;28;20504;-74
2021/07/30 10:18:30;;;;;;;2.50;2.30;;;28.40;99.90;;;;;;5089120;28;20341;-74
2021/07/30 10:21:01;;;;;;;6.95;2.30;;;28.50;99.90;;;;;;5088961;28;20620;-73
2021/07/30 10:23:30;;;;;;;5.30;2.10;;;28.50;99.90;;;;;;5083682;28;20746;-74
2021/07/30 10:25:59;;;;;;;3.05;2.15;;;28.30;99.90;;;;;;5082861;28;20213;-75
2021/07/30 10:28:28;;;;;;;4.20;1.92;;;27.90;99.90;;;;;;5067508;28;20201;-74
2021/07/30 10:30:57;;;;;;;5.82;2.25;;;27.80;99.90;;;;;;5086070;28;20192;-74
2021/07/30 10:33:49;;;;;;;7.15;2.30;;;28.10;99.90;;;;;;5082235;28;20201;-75
2021/07/30 10:36:38;;;;;;;2.97;2.67;;;28.40;99.90;;;;;;5081991;28;20205;-74
2021/07/30 10:39:15;;;;;;;4.47;2.33;;;28.50;99.90;;;;;;5080990;28;21008;-74
2021/07/30 10:42:02;;;;;;;2.42;2.22;;;28.80;99.90;;;;;;5092791;28;20213;-74
2021/07/30 10:44:29;;;;;;;2.72;2.05;;;29.00;99.90;;;;;;5090269;28;20224;-74
2021/07/30 10:47:20;;;;;;;2.70;2.13;;;29.20;99.90;;;;;;5082276;28;20193;-74
2021/07/30 10:49:47;;;;;;;3.58;2.10;;;29.20;99.90;;;;;;5082126;28;20638;-74
2021/07/30 10:52:30;;;;;;;3.00;2.20;;;29.40;99.90;;;;;;5084104;28;20258;-73
2021/07/30 10:54:59;;;;;;;3.92;2.70;;;29.40;99.90;;;;;;5084186;28;20255;-73
2021/07/30 10:57:50;;;;;;;4.22;2.03;;;29.40;99.90;;;;;;5082061;28;20205;-73
2021/07/30 11:00:18;;;;;;;3.72;2.70;;;29.60;99.90;;;;;;5075667;28;20200;-74
2021/07/30 11:03:02;;;;;;;7.47;2.20;;;29.60;99.90;;;;;;5084371;28;20219;-73
2021/07/30 11:05:29;;;;;;;7.32;2.47;;;29.50;99.90;;;;;;5081331;28;20201;-74
2021/07/30 11:08:01;;;;;;;2.88;2.53;;;29.20;99.90;;;;;;5084141;28;20204;-74
2021/07/30 11:10:29;;;;;;;2.88;2.38;;;29.00;99.90;;;;;;5088159;28;20237;-73
2021/07/30 11:12:56;;;;;;;4.65;2.60;;;29.10;99.90;;;;;;5086380;28;20201;-74
2021/07/30 11:15:31;;;;;;;7.25;2.60;;;28.90;99.90;;;;;;5074126;28;20236;-74
2021/07/30 11:18:01;;;;;;;4.22;2.83;;;28.60;99.90;;;;;;5068053;28;20201;-74
2021/07/30 11:20:34;;;;;;;4.00;2.20;;;28.30;99.90;;;;;;5071527;28;20228;-74
2021/07/30 11:23:04;;;;;;;4.72;2.40;;;28.10;99.90;;;;;;5067403;28;20269;-74
2021/07/30 11:25:32;;;;;;;4.90;2.72;;;27.90;99.90;;;;;;5068240;28;20201;-73
2021/07/30 11:28:00;;;;;;;6.25;2.95;;;27.70;99.90;;;;;;5075712;28;20205;-74
2021/07/30 11:30:31;;;;;;;4.53;2.72;;;27.60;99.90;;;;;;5073759;28;20248;-74
2021/07/30 11:32:59;;;;;;;2.60;2.40;;;27.60;99.90;;;;;;5071975;28;20228;-73
2021/07/30 11:35:30;;;;;;;3.10;2.67;;;27.60;99.90;;;;;;5068151;28;20292;-74
2021/07/30 11:38:01;;;;;;;3.78;2.65;;;27.50;99.90;;;;;;5068767;28;20202;-74
2021/07/30 11:40:28;;;;;;;3.38;3.00;;;27.40;99.90;;;;;;5067210;28;20266;-74
2021/07/30 11:43:10;;;;;;;5.88;2.53;;;27.40;99.90;;;;;;5074931;28;20653;-74
2021/07/30 11:45:38;;;;;;;2.80;2.60;;;27.50;99.90;;;;;;5068396;28;20206;-74
2021/07/30 11:48:12;;;;;;;2.70;2.25;;;27.40;99.90;;;;;;5067813;28;20224;-73
2021/07/30 11:50:40;;;;;;;3.72;2.70;;;27.30;99.90;;;;;;5066444;28;20962;-73
2021/07/30 11:53:08;;;;;;;6.57;2.95;;;27.20;99.90;;;;;;5077096;28;20748;-73
2021/07/30 11:55:37;;;;;;;9.40;2.78;;;27.10;99.90;;;;;;5073131;28;20198;-73
2021/07/30 11:58:12;;;;;;;5.43;2.58;;;27.10;99.90;;;;;;5067485;28;20269;-73
2021/07/30 12:00:39;;;;;;;6.82;3.22;;;27.10;99.90;;;;;;5068394;28;20247;-73
2021/07/30 12:03:19;;;;;;;3.80;3.13;;;27.20;99.90;;;;;;5076520;28;20239;-74
2021/07/30 12:05:50;;;;;;;3.35;3.05;;;27.20;99.90;;;;;;5066888;28;20225;-75
2021/07/30 12:08:19;;;;;;;8.40;2.60;;;27.20;99.90;;;;;;5070952;28;20228;-73
2021/07/30 12:10:48;;;;;;;4.55;2.92;;;27.20;99.90;;;;;;5066987;28;20213;-73
2021/07/30 12:13:19;;;;;;;3.55;2.65;;;27.30;99.90;;;;;;5067134;28;20205;-73
2021/07/30 12:15:46;;;;;;;7.10;2.88;;;27.20;99.90;;;;;;5067156;28;20296;-73
2021/07/30 12:18:14;;;;;;;6.47;2.70;;;27.20;99.90;;;;;;5072187;28;20721;-73
2021/07/30 12:20:41;;;;;;;3.70;2.67;;;27.20;99.90;;;;;;5066811;28;20224;-73
2021/07/30 12:23:09;;;;;;;3.58;3.22;;;27.10;99.90;;;;;;5067106;28;20210;-73
2021/07/30 12:25:38;;;;;;;6.88;2.80;;;27.00;99.90;;;;;;5067972;28;20201;-73
2021/07/30 12:28:07;;;;;;;4.13;2.60;;;26.90;99.90;;;;;;5065911;28;20205;-73
2021/07/30 12:30:36;;;;;;;2.88;2.67;;;27.00;99.90;;;;;;5071542;28;20227;-74
2021/07/30 12:33:22;;;;;;;4.97;2.92;;;27.00;99.90;;;;;;5068634;28;20202;-74
2021/07/30 12:35:49;;;;;;;4.65;2.80;;;27.10;99.90;;;;;;5073768;28;20268;-74
2021/07/30 12:38:17;;;;;;;4.45;3.00;;;27.10;99.90;;;;;;5065809;28;20352;-74
2021/07/30 12:40:44;;;;;;;2.55;2.28;;;27.20;99.90;;;;;;5073158;28;20276;-74
2021/07/30 12:43:16;;;;;;;4.53;3.05;;;27.10;99.90;;;;;;5071240;28;20206;-74
2021/07/30 12:45:47;;;;;;;3.15;2.30;;;27.10;99.90;;;;;;5066311;28;20198;-74
2021/07/30 12:48:18;;;;;;;3.47;2.53;;;27.10;99.90;;;;;;5070327;28;20202;-74
2021/07/30 12:50:45;;;;;;;2.78;2.05;;;27.00;99.90;;;;;;5071975;28;20250;-74
2021/07/30 12:53:15;;;;;;;2.97;2.67;;;27.00;99.90;;;;;;5067889;28;20210;-74
2021/07/30 12:56:02;;;;;;;2.75;2.35;;;27.00;99.90;;;;;;5066432;28;20220;-74
2021/07/30 12:58:31;;;;;;;2.38;2.17;;;27.10;99.90;;;;;;5065240;28;20197;-75
2021/07/30 13:01:01;;;;;;;3.50;2.78;;;27.00;99.90;;;;;;5065684;28;20306;-74
2021/07/30 13:03:29;;;;;;;6.45;2.70;;;27.00;99.90;;;;;;5065526;28;20275;-74